createdAt,value
2022-10-28T00:01:23.445Z,13.07
2022-10-28T00:03:55.678Z,13.09
2022-10-28T00:06:25.042Z,13.08
2022-10-28T00:08:52.298Z,13.09
2022-10-28T00:11:21.283Z,13.05
2022-10-28T00:13:48.638Z,13.00
2022-10-28T00:16:19.338Z,13.01
2022-10-28T00:18:46.894Z,12.91
2022-10-28T00:21:15.774Z,12.90
2022-10-28T00:23:42.816Z,12.80
2022-10-28T00:26:12.660Z,12.76
2022-10-28T00:28:50.566Z,12.76
2022-10-28T00:31:19.611Z,12.69
2022-10-28T00:33:46.630Z,12.62
2022-10-28T00:36:19.194Z,12.72
2022-10-28T00:38:47.254Z,12.79
2022-10-28T00:41:17.780Z,12.75
2022-10-28T00:43:48.453Z,12.72
2022-10-28T00:46:24.560Z,12.67
2022-10-28T00:49:02.681Z,12.60
2022-10-28T00:51:31.563Z,12.65
2022-10-28T00:53:58.674Z,12.53
2022-10-28T00:56:27.721Z,12.62
2022-10-28T00:58:57.454Z,12.60
2022-10-28T01:01:24.152Z,12.57
2022-10-28T01:03:51.629Z,12.58
2022-10-28T01:06:18.342Z,12.62
2022-10-28T01:08:45.330Z,12.65
2022-10-28T01:11:55.452Z,12.58
2022-10-28T01:15:08.504Z,12.53
2022-10-28T01:18:25.656Z,12.60
2022-10-28T01:21:12.725Z,12.58
2022-10-28T01:23:53.395Z,12.58
2022-10-28T01:27:13.108Z,12.60
2022-10-28T01:30:29.258Z,12.64
2022-10-28T01:33:24.359Z,12.60
2022-10-28T01:35:57.393Z,12.64
2022-10-28T01:38:36.613Z,12.66
2022-10-28T01:41:11.670Z,12.62
2022-10-28T01:47:56.182Z,13.10
2022-10-28T01:51:12.571Z,13.10
2022-10-28T01:53:41.960Z,13.11
2022-10-28T01:56:11.388Z,13.10
2022-10-28T01:58:39.406Z,13.06
2022-10-28T02:01:08.457Z,13.06
2022-10-28T02:03:35.561Z,12.89
2022-10-28T02:06:05.425Z,12.82
2022-10-28T02:09:07.108Z,12.71
2022-10-28T02:12:09.251Z,12.54
2022-10-28T02:15:14.241Z,12.37
2022-10-28T02:24:54.220Z,12.37
2022-10-28T02:27:45.394Z,12.38
2022-10-28T02:30:19.945Z,12.44
2022-10-28T02:32:53.229Z,12.41
2022-10-28T02:35:31.773Z,12.42
2022-10-28T02:38:01.841Z,12.42
2022-10-28T02:40:29.639Z,12.39
2022-10-28T02:42:59.882Z,12.37
2022-10-28T02:45:31.716Z,12.42
2022-10-28T02:48:03.914Z,12.49
2022-10-28T02:50:34.214Z,12.47
2022-10-28T02:53:03.439Z,12.49
2022-10-28T02:55:37.669Z,12.50
2022-10-28T02:58:04.548Z,12.39
2022-10-28T03:00:31.317Z,12.41
2022-10-28T03:02:58.211Z,12.41
2022-10-28T03:05:25.055Z,12.34
2022-10-28T03:07:52.169Z,12.25
2022-10-28T03:10:19.195Z,12.23
2022-10-28T03:12:46.054Z,12.06
2022-10-28T03:15:12.862Z,12.16
2022-10-28T03:17:40.451Z,12.22
2022-10-28T03:20:07.775Z,12.12
2022-10-28T03:22:34.523Z,12.28
2022-10-28T03:25:01.289Z,12.21
2022-10-28T03:27:27.964Z,12.17
2022-10-28T03:29:54.701Z,12.12
2022-10-28T03:34:49.226Z,12.17
2022-10-28T03:37:15.921Z,12.21
2022-10-28T03:39:42.675Z,12.26
2022-10-28T03:42:09.605Z,12.30
2022-10-28T03:44:36.295Z,12.31
2022-10-28T03:47:03.469Z,12.34
2022-10-28T03:49:30.177Z,12.36
2022-10-28T03:51:56.970Z,12.41
2022-10-28T03:54:23.852Z,12.44
2022-10-28T03:56:50.489Z,12.50
2022-10-28T03:59:20.124Z,12.52
2022-10-28T04:01:47.360Z,12.56
2022-10-28T04:04:14.191Z,12.60
2022-10-28T04:06:40.969Z,12.60
2022-10-28T04:09:07.724Z,12.56
2022-10-28T04:11:34.547Z,12.58
2022-10-28T04:14:01.327Z,12.60
2022-10-28T04:16:27.987Z,12.54
2022-10-28T04:18:54.750Z,12.56
2022-10-28T04:21:21.511Z,12.62
2022-10-28T04:23:48.496Z,12.58
2022-10-28T04:26:15.622Z,12.56
2022-10-28T04:28:42.353Z,12.60
2022-10-28T04:31:10.496Z,12.62
2022-10-28T04:33:37.715Z,12.67
2022-10-28T04:36:04.662Z,12.73
2022-10-28T04:38:31.418Z,12.71
2022-10-28T04:40:58.160Z,12.71
2022-10-28T04:43:25.064Z,12.75
2022-10-28T04:45:51.830Z,12.87
2022-10-28T04:48:18.709Z,12.87
2022-10-28T04:50:45.513Z,12.76
2022-10-28T04:53:12.996Z,12.84
2022-10-28T04:55:40.086Z,12.82
2022-10-28T04:58:07.076Z,12.90
2022-10-28T05:00:34.106Z,12.99
2022-10-28T05:03:04.244Z,13.09
2022-10-28T05:05:30.911Z,13.20
2022-10-28T05:07:58.088Z,13.29
2022-10-28T05:10:25.370Z,13.31
2022-10-28T05:12:52.143Z,13.27
2022-10-28T05:15:18.873Z,13.30
2022-10-28T05:17:47.747Z,13.29
2022-10-28T05:20:17.655Z,13.30
2022-10-28T05:22:53.175Z,13.28
2022-10-28T05:25:20.770Z,13.24
2022-10-28T05:27:48.142Z,13.25
2022-10-28T05:30:15.466Z,13.31
2022-10-28T05:32:42.356Z,13.34
2022-10-28T05:35:09.838Z,13.43
2022-10-28T05:37:36.657Z,13.40
2022-10-28T05:40:04.468Z,13.39
2022-10-28T05:42:31.280Z,13.33
2022-10-28T05:44:57.965Z,13.27
2022-10-28T05:47:24.806Z,13.24
2022-10-28T05:49:51.922Z,13.35
2022-10-28T05:52:18.613Z,13.37
2022-10-28T05:54:45.550Z,13.33
2022-10-28T05:57:12.273Z,13.32
2022-10-28T05:59:39.193Z,13.39
2022-10-28T06:02:06.298Z,13.40
2022-10-28T06:04:33.667Z,13.37
2022-10-28T06:07:00.379Z,13.45
2022-10-28T06:09:30.148Z,13.43
2022-10-28T06:11:55.351Z,13.50
2022-10-28T06:14:22.210Z,13.46
2022-10-28T06:16:49.073Z,13.54
2022-10-28T06:19:16.016Z,13.53
2022-10-28T06:21:43.424Z,13.56
2022-10-28T06:24:12.201Z,13.63
2022-10-28T06:26:39.597Z,13.69
2022-10-28T06:29:09.308Z,13.71
2022-10-28T06:31:40.147Z,13.72
2022-10-28T06:34:10.567Z,13.72
2022-10-28T06:36:37.793Z,13.73
2022-10-28T06:39:04.851Z,13.65
2022-10-28T06:41:31.931Z,13.73
2022-10-28T06:43:58.821Z,13.87
2022-10-28T06:46:25.602Z,13.87
2022-10-28T06:48:54.805Z,13.79
2022-10-28T06:51:21.935Z,13.83
2022-10-28T06:53:53.095Z,13.84
2022-10-28T06:56:20.415Z,13.94
2022-10-28T06:58:54.781Z,13.90
2022-10-28T07:01:22.219Z,13.98
2022-10-28T07:03:49.229Z,14.08
2022-10-28T07:06:16.731Z,14.12
2022-10-28T07:08:43.724Z,14.18
2022-10-28T07:11:11.876Z,14.30
2022-10-28T07:13:38.992Z,14.32
2022-10-28T07:16:06.238Z,14.38
2022-10-28T07:18:33.059Z,14.35
2022-10-28T07:21:01.139Z,14.33
2022-10-28T07:23:28.625Z,14.35
2022-10-28T07:25:56.357Z,14.41
2022-10-28T07:28:24.258Z,14.45
2022-10-28T07:30:51.111Z,14.46
2022-10-28T07:33:18.253Z,14.50
2022-10-28T07:35:45.268Z,14.45
2022-10-28T07:38:12.476Z,14.49
2022-10-28T07:40:39.333Z,14.54
2022-10-28T07:43:06.121Z,14.53
2022-10-28T07:45:32.961Z,14.55
2022-10-28T07:48:00.514Z,14.63
2022-10-28T07:50:27.356Z,14.65
2022-10-28T07:52:54.517Z,14.71
2022-10-28T07:55:21.786Z,14.75
2022-10-28T07:57:48.996Z,14.82
2022-10-28T08:00:16.298Z,14.96
2022-10-28T08:02:43.057Z,15.10
2022-10-28T08:05:10.047Z,15.19
2022-10-28T08:07:38.703Z,15.28
2022-10-28T08:10:06.839Z,15.41
2022-10-28T08:12:34.048Z,15.57
2022-10-28T08:15:00.942Z,15.69
2022-10-28T08:17:27.632Z,15.77
2022-10-28T08:19:54.273Z,15.92
2022-10-28T08:22:21.066Z,16.03
2022-10-28T08:24:48.266Z,16.12
2022-10-28T08:27:14.966Z,16.23
2022-10-28T08:29:41.671Z,16.32
2022-10-28T08:32:09.672Z,16.41
2022-10-28T08:34:39.300Z,16.47
2022-10-28T08:37:09.706Z,16.52
2022-10-28T08:39:36.609Z,16.61
2022-10-28T08:42:26.275Z,16.67
2022-10-28T08:45:16.164Z,16.84
2022-10-28T08:48:23.738Z,17.02
2022-10-28T08:50:53.660Z,17.23
2022-10-28T08:53:25.258Z,17.26
2022-10-28T08:55:54.212Z,17.32
2022-10-28T08:58:26.257Z,17.36
2022-10-28T09:00:55.220Z,17.54
2022-10-28T09:03:26.839Z,17.66
2022-10-28T09:06:02.273Z,17.78
2022-10-28T09:08:31.780Z,17.81
2022-10-28T09:11:43.711Z,18.05
2022-10-28T09:14:44.865Z,18.13
2022-10-28T09:17:25.011Z,18.23
2022-10-28T09:19:54.075Z,18.27
2022-10-28T09:22:43.482Z,18.30
2022-10-28T09:25:31.434Z,18.37
2022-10-28T09:28:32.250Z,18.45
2022-10-28T09:31:41.384Z,18.53
2022-10-28T09:34:33.570Z,18.58
2022-10-28T09:37:33.450Z,18.67
2022-10-28T09:40:14.287Z,18.73
2022-10-28T09:42:45.927Z,18.76
2022-10-28T09:45:16.639Z,18.85
2022-10-28T09:47:46.579Z,18.94
2022-10-28T09:50:18.373Z,18.99
2022-10-28T09:53:05.136Z,19.00
2022-10-28T09:55:33.149Z,19.06
2022-10-28T09:58:00.096Z,19.18
2022-10-28T10:00:27.194Z,19.27
2022-10-28T10:02:57.967Z,19.36
2022-10-28T10:05:25.652Z,19.44
2022-10-28T10:07:58.845Z,19.54
2022-10-28T10:10:29.554Z,19.65
2022-10-28T10:12:59.642Z,19.73
2022-10-28T10:15:30.441Z,19.79
2022-10-28T10:17:59.839Z,19.83
2022-10-28T10:20:27.254Z,20.04
2022-10-28T10:22:54.555Z,20.02
2022-10-28T10:25:26.788Z,20.08
2022-10-28T10:28:00.473Z,20.15
2022-10-28T10:30:32.884Z,20.26
2022-10-28T10:32:59.954Z,20.32
2022-10-28T10:35:29.459Z,20.33
2022-10-28T10:38:01.739Z,20.43
2022-10-28T10:40:34.185Z,20.47
2022-10-28T10:43:40.090Z,20.57
2022-10-28T10:46:18.139Z,20.69
2022-10-28T10:48:45.347Z,20.71
2022-10-28T10:51:23.127Z,20.76
2022-10-28T10:53:51.683Z,20.83
2022-10-28T10:56:27.308Z,20.75
2022-10-28T10:58:56.454Z,20.88
2022-10-28T11:01:24.891Z,20.93
2022-10-28T11:04:09.131Z,21.01
2022-10-28T11:06:40.875Z,21.08
2022-10-28T11:09:19.538Z,21.19
2022-10-28T11:11:46.199Z,21.31
2022-10-28T11:14:33.310Z,21.41
2022-10-28T11:17:03.248Z,21.49
2022-10-28T11:19:32.343Z,21.46
2022-10-28T11:22:29.821Z,21.51
2022-10-28T11:25:29.774Z,21.51
2022-10-28T11:28:45.331Z,21.51
2022-10-28T11:31:31.789Z,21.50
2022-10-28T11:34:26.359Z,21.50
2022-10-28T11:37:09.885Z,21.56
2022-10-28T11:40:13.578Z,21.69
2022-10-28T11:43:23.536Z,21.75
2022-10-28T11:46:28.847Z,21.84
2022-10-28T11:49:24.775Z,21.96
2022-10-28T11:52:23.868Z,22.09
2022-10-28T11:55:04.415Z,22.19
2022-10-28T12:10:40.626Z,22.48
2022-10-28T12:13:58.825Z,22.53
2022-10-28T12:16:53.057Z,22.63
2022-10-28T12:19:42.564Z,22.72
2022-10-28T12:22:28.075Z,22.85
2022-10-28T12:24:56.094Z,22.92
2022-10-28T12:27:26.347Z,23.00
2022-10-28T12:29:57.885Z,23.03
2022-10-28T12:32:29.269Z,23.11
2022-10-28T12:35:01.878Z,23.18
2022-10-28T12:37:33.949Z,23.43
2022-10-28T12:40:08.270Z,23.55
2022-10-28T12:42:41.778Z,23.59
2022-10-28T12:45:14.813Z,23.68
2022-10-28T12:48:00.594Z,23.77
2022-10-28T12:50:53.955Z,23.71
2022-10-28T12:53:37.078Z,23.80
2022-10-28T12:56:10.019Z,23.86
2022-10-28T12:58:45.482Z,23.79
2022-10-28T13:01:14.848Z,23.81
2022-10-28T13:03:41.742Z,23.87
2022-10-28T13:06:42.669Z,23.87
2022-10-28T13:09:37.983Z,23.89
2022-10-28T13:12:53.738Z,23.84
2022-10-28T13:15:41.924Z,23.90
2022-10-28T13:18:50.409Z,23.85
2022-10-28T13:21:47.368Z,23.81
2022-10-28T13:24:27.211Z,23.79
2022-10-28T13:26:54.572Z,23.74
2022-10-28T13:29:26.664Z,23.76
2022-10-28T13:31:54.025Z,23.68
2022-10-28T13:34:22.863Z,23.64
2022-10-28T13:36:57.807Z,23.66
2022-10-28T13:39:40.876Z,23.64
2022-10-28T13:42:34.171Z,23.54
2022-10-28T13:45:02.324Z,23.63
2022-10-28T13:47:39.634Z,23.57
2022-10-28T13:50:17.053Z,23.50
2022-10-28T13:52:45.513Z,23.57
2022-10-28T13:55:40.701Z,23.46
2022-10-28T13:58:23.131Z,23.40
2022-10-28T14:00:53.147Z,23.42
2022-10-28T14:03:24.735Z,23.45
2022-10-28T14:05:55.093Z,23.39
2022-10-28T14:08:31.336Z,23.35
2022-10-28T14:11:04.582Z,23.32
2022-10-28T14:13:35.167Z,23.32
2022-10-28T14:16:17.201Z,23.24
2022-10-28T14:18:53.020Z,22.98
2022-10-28T14:21:20.838Z,22.87
2022-10-28T14:24:07.512Z,22.70
2022-10-28T14:27:26.706Z,22.60
2022-10-28T14:30:16.815Z,22.48
2022-10-28T14:33:20.212Z,22.45
2022-10-28T14:35:48.138Z,22.38
2022-10-28T14:38:39.111Z,22.16
2022-10-28T14:41:27.145Z,22.12
2022-10-28T14:44:35.744Z,22.14
2022-10-28T14:48:04.089Z,22.03
2022-10-28T14:50:41.778Z,22.02
2022-10-28T14:53:19.476Z,21.87
2022-10-28T14:55:47.915Z,21.86
2022-10-28T14:58:24.182Z,21.85
2022-10-28T15:01:02.516Z,21.64
2022-10-28T15:03:29.731Z,21.63
2022-10-28T15:05:56.888Z,21.54
2022-10-28T15:08:25.032Z,21.49
2022-10-28T15:10:52.066Z,21.45
2022-10-28T15:13:26.562Z,21.37
2022-10-28T15:15:55.898Z,21.31
2022-10-28T15:18:25.591Z,21.20
2022-10-28T15:21:14.647Z,21.12
2022-10-28T15:23:41.493Z,21.11
2022-10-28T15:26:11.695Z,21.09
2022-10-28T15:28:39.413Z,21.05
2022-10-28T15:31:06.108Z,20.90
2022-10-28T15:33:40.619Z,20.88
2022-10-28T15:36:33.984Z,20.76
2022-10-28T15:39:21.111Z,20.79
2022-10-28T15:41:52.732Z,20.58
2022-10-28T15:44:36.089Z,20.56
2022-10-28T15:47:30.299Z,20.55
2022-10-28T15:50:01.044Z,20.43
2022-10-28T15:52:52.518Z,20.31
2022-10-28T15:55:41.386Z,20.25
2022-10-28T15:58:32.192Z,20.13
2022-10-28T16:00:59.259Z,19.97
2022-10-28T16:03:45.071Z,19.87
2022-10-28T16:06:26.316Z,19.92
2022-10-28T16:09:07.601Z,19.85
2022-10-28T16:11:36.670Z,19.73
2022-10-28T16:14:09.407Z,19.61
2022-10-28T16:16:36.867Z,19.54
2022-10-28T16:19:25.630Z,19.47
2022-10-28T16:21:52.440Z,19.21
2022-10-28T16:24:19.215Z,19.09
2022-10-28T16:26:46.053Z,19.05
2022-10-28T16:29:12.780Z,19.12
2022-10-28T16:31:41.342Z,19.06
2022-10-28T16:34:14.080Z,19.11
2022-10-28T16:36:40.972Z,19.08
2022-10-28T16:39:14.091Z,19.13
2022-10-28T16:41:41.369Z,19.07
2022-10-28T16:44:18.457Z,19.11
2022-10-28T16:46:45.290Z,19.06
2022-10-28T16:49:12.030Z,19.07
2022-10-28T16:51:39.197Z,18.99
2022-10-28T16:54:05.974Z,18.99
2022-10-28T16:56:32.943Z,18.93
2022-10-28T16:58:59.784Z,18.88
2022-10-28T17:01:26.689Z,18.84
2022-10-28T17:03:53.631Z,18.84
2022-10-28T17:06:20.420Z,18.80
2022-10-28T17:09:02.484Z,18.77
2022-10-28T17:14:16.553Z,18.66
2022-10-28T17:16:43.610Z,18.69
2022-10-28T17:19:10.504Z,18.63
2022-10-28T17:21:37.257Z,18.61
2022-10-28T17:24:04.660Z,18.57
2022-10-28T17:26:31.566Z,18.53
2022-10-28T17:28:58.566Z,18.36
2022-10-28T17:31:25.819Z,18.30
2022-10-28T17:33:55.929Z,18.25
2022-10-28T17:36:23.412Z,18.11
2022-10-28T17:38:50.162Z,18.11
2022-10-28T17:41:16.920Z,18.09
2022-10-28T17:43:43.616Z,18.09
2022-10-28T17:46:10.303Z,17.99
2022-10-28T17:48:37.135Z,17.81
2022-10-28T17:51:04.246Z,17.70
2022-10-28T17:53:30.989Z,17.75
2022-10-28T17:55:58.662Z,17.75
2022-10-28T17:58:25.736Z,17.57
2022-10-28T18:01:04.118Z,17.58
2022-10-28T18:03:34.106Z,17.44
2022-10-28T18:06:05.426Z,17.42
2022-10-28T18:08:37.598Z,17.33
2022-10-28T18:11:05.978Z,17.37
2022-10-28T18:13:34.699Z,17.32
2022-10-28T18:16:10.289Z,17.22
2022-10-28T18:18:41.100Z,17.16
2022-10-28T18:21:10.384Z,17.23
2022-10-28T18:23:37.165Z,17.14
2022-10-28T18:26:11.957Z,17.08
2022-10-28T18:28:40.214Z,16.99
2022-10-28T18:31:09.643Z,16.95
2022-10-28T18:33:36.502Z,16.97
2022-10-28T18:36:05.904Z,16.96
2022-10-28T18:38:33.594Z,16.95
2022-10-28T18:41:00.441Z,16.87
2022-10-28T18:43:27.531Z,16.89
2022-10-28T18:45:54.368Z,16.94
2022-10-28T18:48:21.142Z,16.90
2022-10-28T18:51:00.966Z,16.99
2022-10-28T18:53:28.089Z,16.92
2022-10-28T18:56:00.238Z,16.91
2022-10-28T18:58:27.504Z,16.85
2022-10-28T19:00:54.386Z,16.79
2022-10-28T19:03:22.690Z,16.75
2022-10-28T19:05:49.720Z,16.73
2022-10-28T19:08:16.450Z,16.69
2022-10-28T19:10:43.389Z,16.64
2022-10-28T19:13:10.094Z,16.66
2022-10-28T19:15:42.377Z,16.64
2022-10-28T19:18:09.080Z,16.59
2022-10-28T19:20:35.809Z,16.55
2022-10-28T19:23:02.679Z,16.51
2022-10-28T19:25:29.424Z,16.49
2022-10-28T19:27:58.911Z,16.49
2022-10-28T19:30:25.738Z,16.37
2022-10-28T19:32:52.607Z,16.34
2022-10-28T19:35:20.126Z,16.36
2022-10-28T19:37:46.838Z,16.23
2022-10-28T19:40:13.570Z,16.14
2022-10-28T19:42:40.395Z,16.06
2022-10-28T19:45:08.241Z,16.10
2022-10-28T19:47:34.949Z,16.08
2022-10-28T19:50:01.969Z,15.97
2022-10-28T19:52:28.797Z,15.99
2022-10-28T19:54:55.456Z,16.02
2022-10-28T19:57:22.177Z,15.89
2022-10-28T19:59:48.887Z,15.85
2022-10-28T20:02:15.699Z,15.79
2022-10-28T20:04:42.576Z,15.80
2022-10-28T20:07:09.257Z,15.81
2022-10-28T20:09:36.008Z,15.76
2022-10-28T20:12:02.776Z,15.70
2022-10-28T20:14:29.570Z,15.66
2022-10-28T20:16:56.327Z,15.63
2022-10-28T20:19:23.048Z,15.59
2022-10-28T20:21:50.989Z,15.59
2022-10-28T20:24:17.776Z,15.63
2022-10-28T20:26:44.520Z,15.43
2022-10-28T20:29:11.450Z,15.42
2022-10-28T20:31:40.995Z,15.40
2022-10-28T20:34:08.181Z,15.42
2022-10-28T20:36:39.709Z,15.41
2022-10-28T20:39:13.812Z,15.35
2022-10-28T20:41:41.623Z,15.34
2022-10-28T20:44:08.596Z,15.32
2022-10-28T20:46:35.564Z,15.30
2022-10-28T20:49:02.772Z,15.18
2022-10-28T20:51:31.161Z,15.25
2022-10-28T20:53:58.202Z,15.11
2022-10-28T20:56:26.826Z,15.11
2022-10-28T20:58:54.855Z,15.10
2022-10-28T21:01:27.488Z,15.05
2022-10-28T21:04:02.705Z,14.86
2022-10-28T21:06:30.327Z,14.93
2022-10-28T21:08:58.814Z,14.95
2022-10-28T21:11:26.639Z,14.94
2022-10-28T21:13:58.099Z,15.00
2022-10-28T21:16:25.778Z,14.97
2022-10-28T21:18:52.773Z,14.94
2022-10-28T21:21:20.276Z,14.87
2022-10-28T21:23:47.093Z,14.82
2022-10-28T21:26:14.132Z,14.85
2022-10-28T21:28:43.724Z,14.77
2022-10-28T21:31:12.919Z,14.80
2022-10-28T21:33:40.706Z,14.79
2022-10-28T21:36:10.410Z,14.78
2022-10-28T21:38:37.185Z,14.75
2022-10-28T21:41:18.230Z,14.74
2022-10-28T21:43:50.230Z,14.73
2022-10-28T21:46:17.932Z,14.60
2022-10-28T21:48:45.002Z,14.65
2022-10-28T21:51:15.011Z,14.70
2022-10-28T21:53:43.348Z,14.67
2022-10-28T21:56:20.037Z,14.67
2022-10-28T21:58:49.294Z,14.58
2022-10-28T22:01:23.862Z,14.67
2022-10-28T22:03:51.726Z,14.61
2022-10-28T22:06:18.537Z,14.64
2022-10-28T22:08:45.289Z,14.58
2022-10-28T22:11:17.240Z,14.59
2022-10-28T22:13:44.428Z,14.57
2022-10-28T22:16:14.582Z,14.57
2022-10-28T22:18:41.391Z,14.52
2022-10-28T22:21:11.730Z,14.56
2022-10-28T22:23:38.849Z,14.57
2022-10-28T22:26:07.882Z,14.61
2022-10-28T22:28:35.170Z,14.58
2022-10-28T22:31:07.418Z,14.59
2022-10-28T22:33:34.717Z,14.63
2022-10-28T22:36:03.872Z,14.63
2022-10-28T22:38:30.673Z,14.67
2022-10-28T22:41:14.691Z,14.60
2022-10-28T22:43:42.802Z,14.63
2022-10-28T22:46:11.176Z,14.52
2022-10-28T22:48:38.238Z,14.56
2022-10-28T22:51:05.316Z,14.55
2022-10-28T22:53:32.044Z,14.53
2022-10-28T22:55:58.898Z,14.52
2022-10-28T22:58:27.010Z,14.50
2022-10-28T23:00:53.732Z,14.53
2022-10-28T23:03:20.463Z,14.50
2022-10-28T23:05:47.179Z,14.52
2022-10-28T23:08:15.813Z,14.50
2022-10-28T23:10:42.583Z,14.52
2022-10-28T23:13:12.066Z,14.38
2022-10-28T23:15:38.716Z,14.34
2022-10-28T23:18:05.445Z,14.33
2022-10-28T23:20:32.206Z,14.26
2022-10-28T23:22:58.948Z,14.27
2022-10-28T23:25:25.635Z,14.25
2022-10-28T23:27:52.695Z,14.20
2022-10-28T23:30:19.735Z,14.16
2022-10-28T23:32:46.555Z,14.13
2022-10-28T23:35:13.630Z,14.05
2022-10-28T23:37:40.342Z,14.02
2022-10-28T23:42:34.439Z,14.00
2022-10-28T23:45:01.312Z,14.01
2022-10-28T23:47:27.957Z,14.02
2022-10-28T23:49:54.710Z,13.90
2022-10-28T23:52:21.423Z,13.82
2022-10-28T23:54:48.420Z,13.82
2022-10-28T23:57:15.190Z,13.86
2022-10-28T23:59:42.046Z,13.83
